Time;durP1;ratioP1;P1;durP2;ratioP2;P2;SDS_P1;SDS_P2;PMS_P1;PMS_P2;Temp;Humidity;BMP_temperature;BMP_pressure;BME280_temperature;BME280_humidity;BME280_pressure;Samples;Min_cycle;Max_cycle;Signal;HPM_P1;HPM_P2
2022/05/22 00:01:14;;;;;;;;;;;;;;;;;;5013608;28;20117;-64
2022/05/22 00:03:40;;;;;;;25.35;9.85;;;;;;;;;;5030145;28;19994;-64
2022/05/22 00:06:06;;;;;;;23.10;9.68;;;;;;;;;;5003970;28;20419;-64
2022/05/22 00:08:32;;;;;;;20.92;9.65;;;;;;;;;;5010089;28;20073;-64
2022/05/22 00:10:58;;;;;;;24.33;10.18;;;;;;;;;;5011862;28;20060;-64
2022/05/22 00:13:24;;;;;;;28.00;9.70;;;;;;;;;;5028104;28;20125;-64
2022/05/22 00:18:35;;;;;;;25.15;10.00;;;;;;;;;;5019909;28;20045;-64
2022/05/22 00:21:01;;;;;;;25.10;10.00;;;;;;;;;;5027015;28;20095;-64
2022/05/22 00:23:31;;;;;;;20.55;9.02;;;;;;;;;;5009989;28;20336;-64
2022/05/22 00:25:58;;;;;;;25.00;10.02;;;;;;;;;;5010226;28;20049;-64
2022/05/22 00:28:24;;;;;;;22.08;9.82;;;;;;;;;;5007342;28;20050;-65
2022/05/22 00:30:50;;;;;;;21.20;9.73;;;;;;;;;;5008889;28;20185;-65
2022/05/22 00:33:16;;;;;;;22.13;9.27;;;;;;;;;;5026759;28;20049;-65
2022/05/22 00:35:42;;;;;;;24.00;10.07;;;;;;;;;;5028552;28;20168;-64
2022/05/22 00:38:08;;;;;;;25.55;10.52;;;;;;;;;;5009883;28;20050;-64
2022/05/22 00:40:35;;;;;;;23.63;9.85;;;;;;;;;;5009613;28;20122;-64
2022/05/22 00:43:01;;;;;;;24.55;9.43;;;;;;;;;;5009575;28;20064;-64
2022/05/22 00:45:28;;;;;;;22.08;9.50;;;;;;;;;;4991191;28;20046;-64
2022/05/22 00:47:54;;;;;;;23.45;9.98;;;;;;;;;;5015464;28;20041;-64
2022/05/22 00:50:23;;;;;;;27.25;10.57;;;;;;;;;;5008902;28;20116;-64
2022/05/22 00:52:53;;;;;;;24.23;10.15;;;;;;;;;;5007484;28;20071;-65
2022/05/22 00:55:25;;;;;;;20.20;9.40;;;;;;;;;;5011986;28;20516;-64
2022/05/22 00:57:56;;;;;;;23.55;9.88;;;;;;;;;;5021840;28;20181;-65
2022/05/22 01:00:24;;;;;;;21.75;10.00;;;;;;;;;;5006151;28;20054;-64
2022/05/22 01:05:37;;;;;;;21.27;8.82;;;;;;;;;;5029105;28;20405;-65
2022/05/22 01:08:03;;;;;;;22.02;9.80;;;;;;;;;;5026196;28;20053;-65
2022/05/22 01:10:29;;;;;;;;;;;;;;;;;;5015598;28;20045;-65
2022/05/22 01:12:56;;;;;;;23.80;10.07;;;;;;;;;;5009110;28;20326;-65
2022/05/22 01:15:22;;;;;;;;;;;;;;;;;;5020512;28;20075;-64
2022/05/22 01:17:48;;;;;;;26.52;10.70;;;;;;;;;;5009787;28;20370;-64
2022/05/22 01:20:15;;;;;;;28.60;11.15;;;;;;;;;;5017236;28;20454;-64
2022/05/22 01:22:42;;;;;;;32.63;10.70;;;;;;;;;;5008493;28;20524;-65
2022/05/22 01:25:08;;;;;;;24.70;10.85;;;;;;;;;;5007533;28;20053;-64
2022/05/22 01:27:35;;;;;;;22.00;10.20;;;;;;;;;;5008493;28;20501;-65
2022/05/22 01:30:18;;;;;;;24.40;10.50;;;;;;;;;;5007427;28;20176;-65
2022/05/22 01:32:46;;;;;;;20.98;10.35;;;;;;;;;;5008300;28;20132;-65
2022/05/22 01:35:15;;;;;;;22.98;9.93;;;;;;;;;;5007571;28;20544;-64
2022/05/22 01:37:42;;;;;;;21.42;9.82;;;;;;;;;;5011136;28;20414;-65
2022/05/22 01:40:09;;;;;;;;;;;;;;;;;;5025722;28;20052;-64
2022/05/22 01:42:35;;;;;;;21.73;9.32;;;;;;;;;;5020101;28;19928;-65
2022/05/22 01:45:02;;;;;;;27.83;10.52;;;;;;;;;;5008383;28;20061;-65
2022/05/22 01:47:31;;;;;;;25.75;10.30;;;;;;;;;;5007392;28;20877;-64
2022/05/22 01:49:57;;;;;;;22.60;9.90;;;;;;;;;;5007785;28;20052;-65
2022/05/22 01:52:23;;;;;;;21.60;9.95;;;;;;;;;;5005810;28;20141;-64
2022/05/22 01:54:50;;;;;;;20.55;9.68;;;;;;;;;;5008159;28;20061;-64
2022/05/22 01:57:16;;;;;;;23.00;9.95;;;;;;;;;;5006939;28;20088;-64
2022/05/22 01:59:42;;;;;;;22.65;9.98;;;;;;;;;;5014249;28;20115;-65
2022/05/22 02:02:08;;;;;;;23.23;10.27;;;;;;;;;;5025137;28;20096;-65
2022/05/22 02:04:34;;;;;;;21.67;11.02;;;;;;;;;;5027319;28;20049;-65
2022/05/22 02:09:44;;;;;;;20.60;10.07;;;;;;;;;;5019063;28;20069;-64
2022/05/22 02:12:10;;;;;;;25.60;10.40;;;;;;;;;;5007864;28;20084;-65
2022/05/22 02:14:36;;;;;;;25.08;11.32;;;;;;;;;;5013240;28;20077;-65
2022/05/22 02:17:03;;;;;;;22.38;9.35;;;;;;;;;;5027696;28;20054;-66
2022/05/22 02:19:29;;;;;;;22.50;9.77;;;;;;;;;;5024940;28;20446;-64
2022/05/22 02:21:55;;;;;;;22.52;9.65;;;;;;;;;;5027914;28;20132;-65
2022/05/22 02:24:21;;;;;;;24.75;9.88;;;;;;;;;;5026966;28;20144;-64
2022/05/22 02:26:47;;;;;;;25.00;10.35;;;;;;;;;;5012197;28;20127;-64
2022/05/22 02:29:13;;;;;;;20.90;11.15;;;;;;;;;;5024741;28;20064;-64
2022/05/22 02:31:39;;;;;;;25.45;11.27;;;;;;;;;;5026928;28;20111;-65
2022/05/22 02:34:05;;;;;;;23.02;10.88;;;;;;;;;;5027895;28;20088;-64
2022/05/22 02:36:31;;;;;;;22.73;10.75;;;;;;;;;;5012964;28;20458;-65
2022/05/22 02:38:57;;;;;;;23.95;10.82;;;;;;;;;;5007712;28;20443;-65
2022/05/22 02:41:25;;;;;;;25.42;10.85;;;;;;;;;;5007241;28;20084;-64
2022/05/22 02:43:51;;;;;;;24.55;11.13;;;;;;;;;;5007647;28;20188;-65
2022/05/22 02:46:17;;;;;;;;;;;;;;;;;;5007964;28;20057;-64
2022/05/22 02:48:44;;;;;;;22.75;11.20;;;;;;;;;;5009544;28;19921;-65
2022/05/22 02:51:11;;;;;;;19.60;10.10;;;;;;;;;;5027455;28;20053;-64
2022/05/22 02:53:37;;;;;;;25.40;11.23;;;;;;;;;;5026860;28;20056;-65
2022/05/22 02:56:10;;;;;;;22.90;10.85;;;;;;;;;;5027414;28;20050;-64
2022/05/22 02:58:36;;;;;;;24.42;11.00;;;;;;;;;;5020505;28;20050;-65
2022/05/22 03:01:03;;;;;;;22.83;10.80;;;;;;;;;;5014101;28;20120;-65
2022/05/22 03:03:29;;;;;;;21.80;11.55;;;;;;;;;;5005768;28;20050;-65
2022/05/22 03:08:40;;;;;;;25.63;11.18;;;;;;;;;;5008015;28;20253;-65
2022/05/22 03:11:07;;;;;;;21.75;11.10;;;;;;;;;;5008582;28;20149;-65
2022/05/22 03:13:33;;;;;;;24.02;11.05;;;;;;;;;;5009094;28;20061;-65
2022/05/22 03:15:59;;;;;;;24.92;10.57;;;;;;;;;;5010384;28;20100;-65
2022/05/22 03:18:25;;;;;;;;;;;;;;;;;;5022697;28;20053;-64
2022/05/22 03:20:51;;;;;;;24.35;11.30;;;;;;;;;;5028376;28;19943;-65
2022/05/22 03:23:17;;;;;;;20.88;9.95;;;;;;;;;;5016763;28;20077;-65
2022/05/22 03:25:44;;;;;;;25.80;11.52;;;;;;;;;;5010196;28;20131;-65
2022/05/22 03:28:10;;;;;;;23.27;11.30;;;;;;;;;;5010696;28;20167;-65
2022/05/22 03:30:36;;;;;;;31.05;11.00;;;;;;;;;;5019088;28;20136;-65
2022/05/22 03:33:02;;;;;;;22.95;11.18;;;;;;;;;;5018869;28;20074;-65
2022/05/22 03:35:29;;;;;;;25.98;11.05;;;;;;;;;;5007800;28;20119;-65
2022/05/22 03:37:55;;;;;;;27.70;12.07;;;;;;;;;;5009359;28;20087;-65
2022/05/22 03:40:21;;;;;;;;;;;;;;;;;;5028032;28;20132;-65
2022/05/22 03:42:47;;;;;;;25.08;11.40;;;;;;;;;;5027264;28;19921;-65
2022/05/22 03:45:14;;;;;;;22.67;10.70;;;;;;;;;;5005062;28;20176;-65
2022/05/22 03:47:40;;;;;;;24.77;10.68;;;;;;;;;;5029061;28;20060;-65
2022/05/22 03:50:07;;;;;;;28.83;11.40;;;;;;;;;;5023258;28;20402;-65
2022/05/22 03:52:37;;;;;;;23.88;11.00;;;;;;;;;;5021352;28;20050;-65
2022/05/22 03:55:04;;;;;;;22.40;10.70;;;;;;;;;;5023353;28;20042;-65
2022/05/22 03:57:31;;;;;;;25.63;10.75;;;;;;;;;;5028556;28;20081;-64
2022/05/22 03:59:57;;;;;;;24.92;10.02;;;;;;;;;;5025317;28;20045;-65
2022/05/22 04:02:23;;;;;;;27.50;10.98;;;;;;;;;;5026589;28;20430;-65
2022/05/22 04:04:49;;;;;;;23.67;10.25;;;;;;;;;;5008735;28;20090;-65
2022/05/22 04:07:16;;;;;;;23.08;10.25;;;;;;;;;;5015719;28;20140;-65
2022/05/22 04:09:42;;;;;;;20.95;9.85;;;;;;;;;;5024716;28;20465;-65
2022/05/22 04:12:08;;;;;;;;;;;;;;;;;;5024518;28;20057;-65
2022/05/22 04:14:34;;;;;;;28.90;10.60;;;;;;;;;;5018843;28;19921;-65
2022/05/22 04:17:00;;;;;;;23.38;11.02;;;;;;;;;;5028972;28;20123;-65
2022/05/22 04:19:26;;;;;;;27.00;11.00;;;;;;;;;;5028855;28;20482;-65
2022/05/22 04:21:52;;;;;;;24.50;10.98;;;;;;;;;;5007577;28;20133;-65
2022/05/22 04:27:04;;;;;;;30.20;10.90;;;;;;;;;;5008958;28;19932;-65
2022/05/22 04:29:31;;;;;;;22.15;9.95;;;;;;;;;;5008340;28;20454;-65
2022/05/22 04:31:57;;;;;;;22.20;10.18;;;;;;;;;;5007761;28;20053;-65
2022/05/22 04:34:23;;;;;;;23.38;10.55;;;;;;;;;;5013766;28;20121;-65
2022/05/22 04:36:49;;;;;;;24.27;10.52;;;;;;;;;;5008075;28;20042;-65
2022/05/22 04:39:15;;;;;;;25.38;10.45;;;;;;;;;;5008961;28;20064;-65
2022/05/22 04:41:41;;;;;;;25.98;11.18;;;;;;;;;;5007217;28;20053;-66
2022/05/22 04:44:07;;;;;;;28.60;10.60;;;;;;;;;;5008927;28;20117;-65
2022/05/22 04:46:34;;;;;;;25.25;9.45;;;;;;;;;;5005479;28;20466;-65
2022/05/22 04:49:00;;;;;;;22.95;10.15;;;;;;;;;;5009785;28;20114;-66
2022/05/22 04:51:26;;;;;;;23.02;10.32;;;;;;;;;;5017729;28;20063;-65
2022/05/22 04:53:52;;;;;;;23.23;10.57;;;;;;;;;;5010745;28;20144;-65
2022/05/22 04:56:19;;;;;;;25.60;10.95;;;;;;;;;;5007843;28;20053;-65
2022/05/22 04:58:46;;;;;;;23.13;9.43;;;;;;;;;;5026319;28;20464;-65
2022/05/22 05:01:12;;;;;;;21.73;9.60;;;;;;;;;;5014725;28;20192;-66
2022/05/22 05:03:39;;;;;;;23.92;10.05;;;;;;;;;;5011961;28;20223;-65
2022/05/22 05:06:05;;;;;;;23.65;9.63;;;;;;;;;;5023159;28;20442;-65
2022/05/22 05:08:31;;;;;;;22.90;9.57;;;;;;;;;;5020175;28;20088;-66
2022/05/22 05:10:58;;;;;;;23.80;10.07;;;;;;;;;;5021627;28;20074;-65
2022/05/22 05:13:25;;;;;;;24.73;10.50;;;;;;;;;;5012181;28;20050;-65
2022/05/22 05:15:51;;;;;;;;;;;;;;;;;;5024777;28;20056;-65
2022/05/22 05:18:17;;;;;;;25.73;9.65;;;;;;;;;;5016100;28;19921;-66
2022/05/22 05:20:45;;;;;;;22.10;9.43;;;;;;;;;;5005944;28;20068;-66
2022/05/22 05:23:11;;;;;;;26.92;9.45;;;;;;;;;;5016758;28;20041;-65
2022/05/22 05:25:37;;;;;;;22.98;9.10;;;;;;;;;;5006772;28;20053;-65
2022/05/22 05:28:04;;;;;;;28.98;9.98;;;;;;;;;;5007495;28;20084;-66
2022/05/22 05:30:30;;;;;;;28.02;9.70;;;;;;;;;;5006731;28;20470;-67
2022/05/22 05:32:56;;;;;;;26.33;9.30;;;;;;;;;;5004900;28;20124;-67
2022/05/22 05:35:22;;;;;;;;;;;;;;;;;;5012887;28;20050;-66
2022/05/22 05:37:48;;;;;;;25.08;9.70;;;;;;;;;;5005801;28;19940;-66
2022/05/22 05:40:14;;;;;;;25.80;9.95;;;;;;;;;;5004508;28;20486;-67
2022/05/22 05:42:40;;;;;;;;;;;;;;;;;;5007544;28;20189;-66
2022/05/22 05:45:07;;;;;;;23.65;9.85;;;;;;;;;;5004514;28;20112;-66
2022/05/22 05:47:33;;;;;;;28.20;11.55;;;;;;;;;;5023272;28;20093;-66
2022/05/22 05:50:00;;;;;;;26.80;10.70;;;;;;;;;;5012281;28;20189;-66
2022/05/22 05:52:26;;;;;;;;;;;;;;;;;;5010813;28;20049;-66
2022/05/22 05:54:52;;;;;;;27.10;10.73;;;;;;;;;;5026134;28;19975;-67
2022/05/22 05:57:18;;;;;;;26.05;10.65;;;;;;;;;;5006432;28;20453;-66
2022/05/22 05:59:44;;;;;;;32.00;11.50;;;;;;;;;;5012291;28;20061;-65
2022/05/22 06:02:13;;;;;;;30.15;11.60;;;;;;;;;;5024573;28;20149;-65
2022/05/22 06:04:40;;;;;;;33.63;11.27;;;;;;;;;;5026580;28;20041;-65
2022/05/22 06:07:07;;;;;;;29.73;11.52;;;;;;;;;;5010197;28;20042;-65
2022/05/22 06:09:33;;;;;;;40.80;11.65;;;;;;;;;;4994628;28;20042;-66
2022/05/22 06:11:59;;;;;;;25.42;10.88;;;;;;;;;;5004100;28;20139;-65
2022/05/22 06:14:25;;;;;;;33.03;10.50;;;;;;;;;;5018258;28;20121;-66
2022/05/22 06:16:51;;;;;;;;;;;;;;;;;;5020042;28;20342;-66
2022/05/22 06:19:54;;;;;;;28.45;12.32;;;;;;;;;;5005819;28;19925;-65
2022/05/22 06:22:07;;;;;;;29.27;10.57;;;;;;;;;;5008715;28;20053;-67
2022/05/22 06:24:34;;;;;;;30.92;11.63;;;;;;;;;;5025779;28;20120;-67
2022/05/22 06:27:00;;;;;;;35.33;11.32;;;;;;;;;;5013121;28;20179;-66
2022/05/22 06:29:26;;;;;;;;;;;;;;;;;;5018573;28;20118;-68
2022/05/22 06:31:53;;;;;;;30.48;11.90;;;;;;;;;;5006428;28;19997;-66
2022/05/22 06:34:22;;;;;;;28.42;10.73;;;;;;;;;;5006991;28;20046;-66
2022/05/22 06:36:49;;;;;;;28.95;10.57;;;;;;;;;;5006505;28;20054;-65
2022/05/22 06:42:00;;;;;;;25.25;9.85;;;;;;;;;;5005267;28;20108;-66
2022/05/22 06:44:26;;;;;;;31.40;10.70;;;;;;;;;;5008098;28;20488;-66
2022/05/22 06:46:52;;;;;;;29.73;10.23;;;;;;;;;;5017389;28;20049;-66
2022/05/22 06:49:18;;;;;;;29.70;10.65;;;;;;;;;;5009253;28;20088;-66
2022/05/22 06:51:44;;;;;;;31.08;8.32;;;;;;;;;;5008399;28;20122;-68
2022/05/22 06:54:10;;;;;;;27.17;8.95;;;;;;;;;;5008825;28;20064;-67
2022/05/22 06:56:36;;;;;;;25.05;8.70;;;;;;;;;;5007554;28;20049;-68
2022/05/22 06:59:02;;;;;;;22.17;8.15;;;;;;;;;;5006135;28;20106;-67
2022/05/22 07:01:29;;;;;;;30.52;8.55;;;;;;;;;;5007794;28;20045;-66
2022/05/22 07:03:55;;;;;;;20.65;7.97;;;;;;;;;;5014315;28;20409;-66
2022/05/22 07:06:21;;;;;;;24.33;8.75;;;;;;;;;;5023384;28;20414;-66
2022/05/22 07:08:47;;;;;;;18.20;6.38;;;;;;;;;;5030108;28;20092;-68
2022/05/22 07:13:58;;;;;;;24.10;6.93;;;;;;;;;;5008903;28;20129;-65
2022/05/22 07:16:24;;;;;;;18.85;5.95;;;;;;;;;;5007783;28;20438;-67
2022/05/22 07:18:50;;;;;;;18.77;6.43;;;;;;;;;;5015384;28;20116;-66
2022/05/22 07:21:16;;;;;;;17.55;6.05;;;;;;;;;;5008445;28;20094;-66
2022/05/22 07:23:42;;;;;;;20.92;5.93;;;;;;;;;;5008752;28;20046;-66
2022/05/22 07:26:08;;;;;;;20.65;6.15;;;;;;;;;;5017461;28;20514;-66
2022/05/22 07:28:34;;;;;;;;;;;;;;;;;;5009801;28;20442;-66
2022/05/22 07:31:00;;;;;;;19.27;6.07;;;;;;;;;;5021673;28;20020;-66
2022/05/22 07:33:26;;;;;;;18.80;6.35;;;;;;;;;;5025648;28;20184;-65
2022/05/22 07:35:54;;;;;;;24.13;6.60;;;;;;;;;;5014422;28;20055;-65
2022/05/22 07:38:20;;;;;;;22.25;5.70;;;;;;;;;;5029363;28;20120;-66
2022/05/22 07:40:46;;;;;;;26.77;6.22;;;;;;;;;;5014154;28;20094;-67
2022/05/22 07:43:12;;;;;;;19.48;6.10;;;;;;;;;;5009043;28;20071;-65
2022/05/22 07:45:38;;;;;;;22.30;5.90;;;;;;;;;;5016739;28;20361;-66
2022/05/22 07:48:04;;;;;;;18.65;5.65;;;;;;;;;;5028809;28;20072;-67
2022/05/22 07:50:31;;;;;;;18.90;6.25;;;;;;;;;;5019310;28;20112;-67
2022/05/22 07:52:57;;;;;;;20.33;5.38;;;;;;;;;;5029057;28;20060;-65
2022/05/22 07:55:23;;;;;;;14.98;4.55;;;;;;;;;;5020600;28;20091;-66
2022/05/22 07:57:49;;;;;;;17.73;5.85;;;;;;;;;;5027222;28;20063;-72
2022/05/22 08:00:15;;;;;;;;;;;;;;;;;;5013982;28;20124;-71
2022/05/22 08:02:41;;;;;;;16.65;5.13;;;;;;;;;;5029246;28;20345;-71
2022/05/22 08:05:08;;;;;;;;;;;;;;;;;;5026627;28;20184;-71
2022/05/22 08:07:34;;;;;;;18.38;4.85;;;;;;;;;;5018541;28;19937;-73
2022/05/22 08:10:00;;;;;;;;;;;;;;;;;;5007669;28;20120;-72
2022/05/22 08:12:27;;;;;;;17.33;4.63;;;;;;;;;;5008732;28;20334;-73
2022/05/22 08:14:53;;;;;;;16.52;4.40;;;;;;;;;;5011999;28;20101;-73
2022/05/22 08:17:21;;;;;;;17.95;4.50;;;;;;;;;;5017613;28;20041;-73
2022/05/22 08:19:48;;;;;;;18.08;4.80;;;;;;;;;;5007882;28;20120;-74
2022/05/22 08:22:15;;;;;;;18.73;4.47;;;;;;;;;;5008339;28;20049;-73
2022/05/22 08:24:41;;;;;;;19.35;4.50;;;;;;;;;;5006959;28;20478;-73
2022/05/22 08:27:07;;;;;;;16.48;4.47;;;;;;;;;;5010239;28;20065;-73
2022/05/22 08:29:33;;;;;;;14.30;3.90;;;;;;;;;;5006289;28;20046;-74
2022/05/22 08:31:59;;;;;;;;;;;;;;;;;;5021503;28;20068;-74
2022/05/22 08:34:25;;;;;;;15.32;4.05;;;;;;;;;;5013438;28;20289;-72
2022/05/22 08:36:52;;;;;;;16.60;4.70;;;;;;;;;;5006029;28;20172;-72
2022/05/22 08:39:18;;;;;;;13.55;4.20;;;;;;;;;;5005645;28;20053;-73
2022/05/22 08:41:47;;;;;;;16.95;4.90;;;;;;;;;;5017965;28;20085;-73
2022/05/22 08:44:15;;;;;;;15.15;4.40;;;;;;;;;;5006686;28;20130;-72
2022/05/22 08:46:52;;;;;;;14.18;4.07;;;;;;;;;;5007224;28;20354;-74
2022/05/22 08:49:30;;;;;;;17.15;4.18;;;;;;;;;;5004230;28;20123;-74
2022/05/22 08:52:17;;;;;;;14.02;3.80;;;;;;;;;;5007277;28;20105;-73
2022/05/22 08:54:43;;;;;;;;;;;;;;;;;;5006601;28;20463;-72
2022/05/22 09:00:09;;;;;;;15.95;4.47;;;;;;;;;;5012099;28;20053;-72
2022/05/22 09:02:35;;;;;;;18.67;3.75;;;;;;;;;;4993181;28;20119;-74
2022/05/22 09:05:01;;;;;;;;;;;;;;;;;;5019271;28;20052;-72
2022/05/22 09:07:46;;;;;;;11.55;3.70;;;;;;;;;;5006793;28;20691;-74
2022/05/22 09:10:20;;;;;;;16.13;4.15;;;;;;;;;;5007017;28;20053;-73
2022/05/22 09:12:51;;;;;;;14.82;3.50;;;;;;;;;;5008148;28;20466;-74
2022/05/22 09:15:20;;;;;;;14.05;3.42;;;;;;;;;;4987787;28;20185;-73
2022/05/22 09:17:46;;;;;;;14.75;3.60;;;;;;;;;;5022698;28;20048;-72
2022/05/22 09:20:19;;;;;;;14.77;3.72;;;;;;;;;;5023488;28;20041;-73
2022/05/22 09:22:54;;;;;;;12.27;2.85;;;;;;;;;;5023740;28;20446;-73
2022/05/22 09:25:33;;;;;;;14.68;3.40;;;;;;;;;;5013514;28;20112;-72
2022/05/22 09:28:14;;;;;;;13.10;3.38;;;;;;;;;;5024243;28;20120;-73
2022/05/22 09:31:04;;;;;;;12.45;3.38;;;;;;;;;;5023139;28;20195;-72
2022/05/22 09:33:48;;;;;;;18.67;3.60;;;;;;;;;;4980518;28;20065;-72
2022/05/22 09:36:20;;;;;;;17.13;3.60;;;;;;;;;;5006186;28;20221;-72
2022/05/22 09:39:00;;;;;;;11.68;2.95;;;;;;;;;;5021860;28;20041;-72
2022/05/22 09:41:32;;;;;;;11.07;3.00;;;;;;;;;;5010359;28;20184;-73
2022/05/22 09:44:22;;;;;;;13.57;3.35;;;;;;;;;;5022764;28;20362;-73
2022/05/22 09:47:09;;;;;;;15.90;3.22;;;;;;;;;;5011039;28;20465;-73
2022/05/22 09:49:40;;;;;;;13.80;2.72;;;;;;;;;;4991689;28;20069;-74
2022/05/22 09:52:12;;;;;;;11.05;2.65;;;;;;;;;;5007771;28;20525;-72
2022/05/22 09:54:47;;;;;;;12.63;3.05;;;;;;;;;;5019090;28;20049;-72
2022/05/22 09:57:13;;;;;;;10.50;2.63;;;;;;;;;;5007025;28;20469;-70
2022/05/22 09:59:57;;;;;;;13.50;2.92;;;;;;;;;;5007081;28;20057;-73
2022/05/22 10:02:42;;;;;;;12.00;2.72;;;;;;;;;;5006009;28;20407;-72
2022/05/22 10:05:26;;;;;;;12.93;3.00;;;;;;;;;;5020678;28;20085;-73
2022/05/22 10:07:59;;;;;;;12.27;3.10;;;;;;;;;;5006814;28;20113;-73
2022/05/22 10:10:31;;;;;;;10.52;2.83;;;;;;;;;;5025188;28;20063;-74
2022/05/22 10:12:57;;;;;;;11.52;3.03;;;;;;;;;;5018263;28;20069;-67
2022/05/22 10:15:27;;;;;;;9.50;2.72;;;;;;;;;;5017095;28;20127;-66
2022/05/22 10:17:57;;;;;;;11.80;2.80;;;;;;;;;;5016730;28;20426;-66
2022/05/22 10:20:37;;;;;;;12.80;3.03;;;;;;;;;;5013073;28;20038;-65
2022/05/22 10:23:22;;;;;;;14.52;3.05;;;;;;;;;;5017120;28;20127;-66
2022/05/22 10:25:56;;;;;;;11.50;4.25;;;;;;;;;;5013161;28;20557;-67
2022/05/22 10:28:22;;;;;;;9.13;2.53;;;;;;;;;;5007724;28;20038;-65
2022/05/22 10:30:52;;;;;;;12.13;2.97;;;;;;;;;;5006714;28;20063;-67
2022/05/22 10:33:26;;;;;;;13.70;3.17;;;;;;;;;;5019987;28;20132;-65
2022/05/22 10:35:56;;;;;;;11.15;2.92;;;;;;;;;;4987328;28;20060;-66
2022/05/22 10:38:22;;;;;;;14.98;3.05;;;;;;;;;;4996866;28;20051;-66
2022/05/22 10:43:36;;;;;;;10.30;2.67;;;;;;;;;;5021998;28;20417;-66
2022/05/22 10:46:02;;;;;;;9.63;2.70;;;;;;;;;;5007751;28;20065;-66
2022/05/22 10:48:31;;;;;;;9.00;2.25;;;;;;;;;;5014423;28;20042;-66
2022/05/22 10:51:03;;;;;;;11.38;2.88;;;;;;;;;;5024360;28;20064;-66
2022/05/22 10:53:38;;;;;;;12.38;3.00;;;;;;;;;;5021758;28;20045;-67
2022/05/22 10:56:19;;;;;;;10.48;2.97;;;;;;;;;;5021703;28;20187;-67
2022/05/22 10:58:59;;;;;;;10.10;2.67;;;;;;;;;;5012850;28;20207;-66
2022/05/22 11:01:36;;;;;;;14.15;2.95;;;;;;;;;;5009632;28;20129;-66
2022/05/22 11:04:02;;;;;;;;;;;;;;;;;;5013519;28;20053;-67
2022/05/22 11:06:28;;;;;;;10.27;2.75;;;;;;;;;;5009108;28;20222;-66
2022/05/22 11:08:55;;;;;;;15.07;2.90;;;;;;;;;;5003000;28;20042;-66
2022/05/22 11:11:26;;;;;;;11.15;2.65;;;;;;;;;;4995613;28;20089;-68
2022/05/22 11:13:52;;;;;;;9.70;2.50;;;;;;;;;;4996874;28;20058;-66
2022/05/22 11:16:20;;;;;;;9.05;2.42;;;;;;;;;;5005848;28;20054;-67
2022/05/22 11:18:46;;;;;;;11.32;2.65;;;;;;;;;;5007270;28;21525;-66
2022/05/22 11:21:48;;;;;;;8.73;2.30;;;;;;;;;;5017886;28;20176;-67
2022/05/22 11:24:14;;;;;;;12.88;2.80;;;;;;;;;;4922985;29;20043;-67
2022/05/22 11:26:40;;;;;;;;;;;;;;;;;;4999045;28;20065;-66
2022/05/22 11:29:13;;;;;;;13.70;2.70;;;;;;;;;;5005789;28;20427;-67
2022/05/22 11:31:51;;;;;;;9.00;2.50;;;;;;;;;;5009668;28;20152;-67
2022/05/22 11:34:30;;;;;;;13.73;2.65;;;;;;;;;;5011752;28;20041;-67
2022/05/22 11:37:02;;;;;;;8.93;2.20;;;;;;;;;;5009586;28;20109;-67
2022/05/22 11:39:41;;;;;;;12.23;3.55;;;;;;;;;;5008313;28;20518;-65
2022/05/22 11:42:27;;;;;;;10.30;2.88;;;;;;;;;;5009889;28;20470;-66
2022/05/22 11:45:07;;;;;;;10.27;2.65;;;;;;;;;;5005840;28;20193;-67
2022/05/22 11:47:33;;;;;;;10.23;2.63;;;;;;;;;;5009312;28;20105;-66
2022/05/22 11:50:08;;;;;;;9.75;2.47;;;;;;;;;;5016156;28;20128;-69
2022/05/22 11:52:55;;;;;;;10.13;2.67;;;;;;;;;;5017571;28;20118;-68
2022/05/22 11:55:21;;;;;;;;;;;;;;;;;;5007236;28;20125;-69
2022/05/22 11:58:13;;;;;;;10.48;2.40;;;;;;;;;;5009021;28;20425;-69
2022/05/22 12:00:40;;;;;;;11.98;2.70;;;;;;;;;;4987888;28;20442;-67
2022/05/22 12:03:21;;;;;;;9.82;2.45;;;;;;;;;;5007802;28;20129;-69
2022/05/22 12:05:47;;;;;;;11.57;3.28;;;;;;;;;;5006182;28;20482;-67
2022/05/22 12:08:21;;;;;;;14.82;2.95;;;;;;;;;;5010969;28;20054;-68
2022/05/22 12:10:51;;;;;;;11.13;2.55;;;;;;;;;;5008760;28;20054;-68
2022/05/22 12:13:17;;;;;;;9.82;2.42;;;;;;;;;;5006508;28;20145;-67
2022/05/22 12:15:54;;;;;;;11.07;2.25;;;;;;;;;;5008437;28;20045;-68
2022/05/22 12:18:23;;;;;;;14.27;3.75;;;;;;;;;;5009439;28;20061;-68
2022/05/22 12:20:55;;;;;;;9.93;2.72;;;;;;;;;;5010602;28;20052;-68
2022/05/22 12:23:29;;;;;;;11.13;2.55;;;;;;;;;;5004267;28;20065;-68
2022/05/22 12:25:59;;;;;;;11.27;2.72;;;;;;;;;;5024302;28;20059;-69
2022/05/22 12:28:25;;;;;;;15.95;2.90;;;;;;;;;;5025381;28;20049;-69
2022/05/22 12:30:51;;;;;;;;;;;;;;;;;;5024876;28;20053;-68
2022/05/22 12:33:17;;;;;;;12.15;2.80;;;;;;;;;;5009811;28;20259;-69
2022/05/22 12:35:44;;;;;;;11.15;2.55;;;;;;;;;;5022562;28;20366;-66
2022/05/22 12:38:09;;;;;;;;;;;;;;;;;;5016064;28;20037;-66
2022/05/22 12:40:48;;;;;;;10.20;2.63;;;;;;;;;;5004972;28;20024;-65
2022/05/22 12:43:17;;;;;;;11.70;2.78;;;;;;;;;;5023908;28;20358;-66
2022/05/22 12:45:53;;;;;;;10.73;2.47;;;;;;;;;;5006910;28;20083;-65
2022/05/22 12:48:27;;;;;;;8.23;2.28;;;;;;;;;;5014348;28;20069;-65
2022/05/22 12:51:06;;;;;;;13.18;2.70;;;;;;;;;;5019755;28;20057;-66
2022/05/22 12:53:32;;;;;;;12.48;2.70;;;;;;;;;;5018070;28;20068;-65
2022/05/22 12:56:16;;;;;;;11.07;2.83;;;;;;;;;;5006040;28;20295;-65
2022/05/22 12:58:45;;;;;;;14.35;2.55;;;;;;;;;;5009526;28;20045;-65
2022/05/22 13:01:30;;;;;;;11.35;2.53;;;;;;;;;;5015116;28;20509;-65
2022/05/22 13:03:58;;;;;;;11.57;2.60;;;;;;;;;;5017852;28;20121;-66
2022/05/22 13:06:56;;;;;;;10.57;2.95;;;;;;;;;;5002868;28;20146;-66
2022/05/22 13:09:24;;;;;;;11.07;2.78;;;;;;;;;;4975762;28;20050;-67
2022/05/22 13:11:58;;;;;;;12.35;2.80;;;;;;;;;;4996878;28;20133;-69
2022/05/22 13:14:29;;;;;;;11.32;2.40;;;;;;;;;;5018217;28;20370;-69
2022/05/22 13:16:55;;;;;;;15.77;3.67;;;;;;;;;;5025161;28;20234;-69
2022/05/22 13:19:26;;;;;;;11.55;2.67;;;;;;;;;;5001141;28;20144;-69
2022/05/22 13:21:52;;;;;;;12.23;2.33;;;;;;;;;;5002412;28;20061;-67
2022/05/22 13:24:18;;;;;;;12.73;2.75;;;;;;;;;;5006322;28;20159;-68
2022/05/22 13:27:03;;;;;;;10.50;2.72;;;;;;;;;;5019805;28;20470;-67
2022/05/22 13:29:35;;;;;;;9.93;2.50;;;;;;;;;;5003168;28;20130;-68
2022/05/22 13:32:02;;;;;;;12.45;2.92;;;;;;;;;;5012531;28;20141;-71
2022/05/22 13:34:29;;;;;;;14.70;2.97;;;;;;;;;;4999680;28;20197;-74
2022/05/22 13:36:57;;;;;;;9.40;2.80;;;;;;;;;;5007401;28;20144;-72
2022/05/22 13:39:34;;;;;;;8.13;2.40;;;;;;;;;;5001080;28;20120;-71
2022/05/22 13:42:20;;;;;;;7.88;2.47;;;;;;;;;;5005978;28;20052;-72
2022/05/22 13:44:55;;;;;;;12.20;2.53;;;;;;;;;;5002128;28;20061;-68
2022/05/22 13:47:40;;;;;;;9.90;2.47;;;;;;;;;;5020240;28;20354;-69
2022/05/22 13:53:20;;;;;;;11.15;3.20;;;;;;;;;;5000852;28;20068;-69
2022/05/22 13:55:47;;;;;;;10.27;2.72;;;;;;;;;;4999318;28;20095;-66
2022/05/22 13:58:19;;;;;;;12.70;2.75;;;;;;;;;;5010434;28;20069;-65
2022/05/22 14:00:48;;;;;;;9.07;2.88;;;;;;;;;;4997100;28;20152;-67
2022/05/22 14:03:29;;;;;;;9.63;2.55;;;;;;;;;;5000287;28;20389;-67
2022/05/22 14:05:56;;;;;;;7.13;2.30;;;;;;;;;;4996897;28;20046;-69
2022/05/22 14:08:29;;;;;;;14.60;3.17;;;;;;;;;;5000747;28;20141;-70
2022/05/22 14:11:01;;;;;;;12.65;2.90;;;;;;;;;;5005606;28;20071;-69
2022/05/22 14:13:28;;;;;;;9.20;2.60;;;;;;;;;;4996339;28;20058;-70
2022/05/22 14:16:01;;;;;;;13.55;2.58;;;;;;;;;;5024309;28;20076;-70
2022/05/22 14:18:29;;;;;;;8.07;2.30;;;;;;;;;;5001600;28;20316;-69
2022/05/22 14:20:56;;;;;;;10.70;2.60;;;;;;;;;;5022596;28;20053;-68
2022/05/22 14:23:22;;;;;;;10.77;2.60;;;;;;;;;;5017856;28;20053;-68
2022/05/22 14:25:53;;;;;;;9.82;2.38;;;;;;;;;;5022920;28;20105;-67
2022/05/22 14:28:26;;;;;;;9.20;2.10;;;;;;;;;;5027078;28;20045;-70
2022/05/22 14:30:52;;;;;;;11.57;2.55;;;;;;;;;;5020341;28;20045;-68
2022/05/22 14:33:20;;;;;;;10.57;2.60;;;;;;;;;;5012736;28;20116;-71
2022/05/22 14:35:50;;;;;;;10.05;2.92;;;;;;;;;;5005724;28;20425;-69
2022/05/22 14:38:22;;;;;;;11.85;2.65;;;;;;;;;;5006499;28;20113;-69
2022/05/22 14:41:02;;;;;;;14.27;2.30;;;;;;;;;;5017983;28;20438;-69
2022/05/22 14:43:33;;;;;;;12.70;2.50;;;;;;;;;;5011334;28;20133;-69
2022/05/22 14:46:00;;;;;;;9.30;2.58;;;;;;;;;;5018424;28;20077;-68
2022/05/22 14:48:28;;;;;;;11.90;2.65;;;;;;;;;;5012094;28;21427;-66
2022/05/22 14:51:06;;;;;;;8.23;2.08;;;;;;;;;;5015193;28;20112;-66
2022/05/22 14:53:34;;;;;;;11.10;3.08;;;;;;;;;;5011571;28;20064;-68
2022/05/22 14:56:09;;;;;;;13.38;2.95;;;;;;;;;;5024726;28;20416;-69
2022/05/22 14:58:38;;;;;;;10.73;2.78;;;;;;;;;;5014691;28;20108;-69
2022/05/22 15:01:10;;;;;;;10.80;3.10;;;;;;;;;;5004896;28;20100;-68
2022/05/22 15:03:45;;;;;;;11.88;3.55;;;;;;;;;;4992940;28;20064;-68
2022/05/22 15:06:11;;;;;;;11.18;2.60;;;;;;;;;;5021953;28;21379;-66
2022/05/22 15:08:50;;;;;;;11.20;2.70;;;;;;;;;;5001385;28;20076;-68
2022/05/22 15:11:18;;;;;;;13.20;4.22;;;;;;;;;;5004493;28;20068;-68
2022/05/22 15:13:56;;;;;;;17.33;2.95;;;;;;;;;;5008865;28;20187;-68
2022/05/22 15:16:23;;;;;;;10.98;3.08;;;;;;;;;;5006279;28;20060;-69